South Arlington, Ohio
Current Conditions -  °F | °C
As of 5:36 PM on Sunday 25 Jan 2015 (Local Time) from KAKR Reporting Station
Light Snow Light Snow  
Wind Chill: 16°   Ceiling: 2200
Heat Index: 26°   Visibility: 0.75mi
Dew Point: 21°   Wind: 10mph
Humidity: 81%   Direction: 40°NE
Pressure: 29.8"   Gusts: NA
Location:  41.0384°N, 81.4827°W
Report Text: KAKR 252236Z AUTO 04009KT 3/4SM -SN OVC022 M03/M06 A2980 RMK AO2 P0000 T10331061 $
Loading
Personal Weather Stations






























Interactive Weather Map New forecast layout! Learn more

10-Day Weather Forecast

Advertisements
Track Severe Weather on mobile